Mount Hulda, Missouri
Current Conditions -  °F | °C
As of 1:53 PM on Sunday 25 Jan 2015 (Local Time) from KDMO Reporting Station
Light Rain Light Rain  
Wind Chill: 29°   Ceiling: 800
Heat Index: 38°   Visibility: 8mi
Dew Point: 35°   Wind: 16mph
Humidity: 89%   Direction: 320°NW
Pressure: 29.77"   Gusts: 29mph
Location:  38.4446°N, 93.178°W
Report Text: KDMO 251953Z AUTO 32014G25KT 8SM -RA OVC008 03/02 A2977 RMK AO2 PK WND 32028/1932 SLP085 P0004 T00330017
Loading
Personal Weather Stations






























Interactive Weather Map New forecast layout! Learn more

10-Day Weather Forecast

Advertisements
Track Severe Weather on mobile